sensor_id;sensor_type;location;lat;lon;timestamp;pressure;altitude;pressure_sealevel;temperature;humidity
41250;BME280;26984;59.928;30.306;2023-08-12T00:02:17;101796.00;;;18.64;100.00
41250;BME280;26984;59.928;30.306;2023-08-12T00:04:45;101802.31;;;18.64;100.00
41250;BME280;26984;59.928;30.306;2023-08-12T00:07:12;101799.59;;;18.64;100.00
41250;BME280;26984;59.928;30.306;2023-08-12T00:09:40;101802.53;;;18.63;100.00
41250;BME280;26984;59.928;30.306;2023-08-12T00:12:08;101803.38;;;18.63;100.00
41250;BME280;26984;59.928;30.306;2023-08-12T00:14:35;101805.75;;;18.60;100.00
41250;BME280;26984;59.928;30.306;2023-08-12T00:17:03;101804.09;;;18.59;100.00
41250;BME280;26984;59.928;30.306;2023-08-12T00:19:32;101799.72;;;18.58;100.00
41250;BME280;26984;59.928;30.306;2023-08-12T00:21:59;101807.91;;;18.58;100.00
41250;BME280;26984;59.928;30.306;2023-08-12T00:24:26;101804.69;;;18.61;100.00
41250;BME280;26984;59.928;30.306;2023-08-12T00:26:54;101797.81;;;18.58;100.00
41250;BME280;26984;59.928;30.306;2023-08-12T00:29:23;101794.84;;;18.60;100.00
41250;BME280;26984;59.928;30.306;2023-08-12T00:31:50;101799.47;;;18.59;100.00
41250;BME280;26984;59.928;30.306;2023-08-12T00:34:17;101792.09;;;18.60;100.00
41250;BME280;26984;59.928;30.306;2023-08-12T00:36:46;101794.25;;;18.58;100.00
41250;BME280;26984;59.928;30.306;2023-08-12T00:39:14;101784.91;;;18.54;100.00
41250;BME280;26984;59.928;30.306;2023-08-12T00:41:41;101787.03;;;18.52;100.00
41250;BME280;26984;59.928;30.306;2023-08-12T00:44:09;101791.06;;;18.49;100.00
41250;BME280;26984;59.928;30.306;2023-08-12T00:46:36;101797.34;;;18.50;100.00
41250;BME280;26984;59.928;30.306;2023-08-12T00:49:05;101798.19;;;18.50;100.00
41250;BME280;26984;59.928;30.306;2023-08-12T00:51:32;101801.75;;;18.51;100.00
41250;BME280;26984;59.928;30.306;2023-08-12T00:54:04;101800.69;;;18.52;100.00
41250;BME280;26984;59.928;30.306;2023-08-12T00:56:31;101794.97;;;18.53;100.00
41250;BME280;26984;59.928;30.306;2023-08-12T00:58:59;101795.91;;;18.59;100.00
41250;BME280;26984;59.928;30.306;2023-08-12T01:01:27;101799.94;;;18.56;100.00
41250;BME280;26984;59.928;30.306;2023-08-12T01:03:54;101797.00;;;18.58;100.00
41250;BME280;26984;59.928;30.306;2023-08-12T01:06:22;101794.63;;;18.61;100.00
41250;BME280;26984;59.928;30.306;2023-08-12T01:08:50;101791.41;;;18.64;100.00
41250;BME280;26984;59.928;30.306;2023-08-12T01:11:20;101790.41;;;18.71;100.00
41250;BME280;26984;59.928;30.306;2023-08-12T01:13:49;101790.66;;;18.69;100.00
41250;BME280;26984;59.928;30.306;2023-08-12T01:16:19;101798.03;;;18.69;100.00
41250;BME280;26984;59.928;30.306;2023-08-12T01:18:50;101784.75;;;18.72;100.00
41250;BME280;26984;59.928;30.306;2023-08-12T01:21:18;101788.31;;;18.73;100.00
41250;BME280;26984;59.928;30.306;2023-08-12T01:23:53;101796.50;;;18.73;100.00
41250;BME280;26984;59.928;30.306;2023-08-12T01:26:22;101800.31;;;18.72;100.00
41250;BME280;26984;59.928;30.306;2023-08-12T01:28:52;101789.97;;;18.74;100.00
41250;BME280;26984;59.928;30.306;2023-08-12T01:31:22;101785.81;;;18.71;100.00
41250;BME280;26984;59.928;30.306;2023-08-12T01:33:52;101775.94;;;18.70;100.00
41250;BME280;26984;59.928;30.306;2023-08-12T01:36:22;101776.69;;;18.65;100.00
41250;BME280;26984;59.928;30.306;2023-08-12T01:38:54;101770.38;;;18.65;100.00
41250;BME280;26984;59.928;30.306;2023-08-12T01:41:23;101765.16;;;18.63;100.00
41250;BME280;26984;59.928;30.306;2023-08-12T01:43:53;101766.50;;;18.61;100.00
41250;BME280;26984;59.928;30.306;2023-08-12T01:46:22;101765.91;;;18.59;100.00
41250;BME280;26984;59.928;30.306;2023-08-12T01:48:53;101759.00;;;18.56;100.00
41250;BME280;26984;59.928;30.306;2023-08-12T01:51:20;101760.56;;;18.52;100.00
41250;BME280;26984;59.928;30.306;2023-08-12T01:53:48;101765.81;;;18.54;100.00
41250;BME280;26984;59.928;30.306;2023-08-12T01:56:16;101765.94;;;18.47;100.00
41250;BME280;26984;59.928;30.306;2023-08-12T01:58:44;101765.81;;;18.42;100.00
41250;BME280;26984;59.928;30.306;2023-08-12T02:01:12;101757.19;;;18.33;100.00
41250;BME280;26984;59.928;30.306;2023-08-12T02:03:39;101760.66;;;18.29;100.00
41250;BME280;26984;59.928;30.306;2023-08-12T02:06:06;101764.56;;;18.21;100.00
41250;BME280;26984;59.928;30.306;2023-08-12T02:08:34;101769.66;;;18.17;100.00
41250;BME280;26984;59.928;30.306;2023-08-12T02:11:02;101773.22;;;18.06;100.00
41250;BME280;26984;59.928;30.306;2023-08-12T02:13:31;101776.06;;;18.00;100.00
41250;BME280;26984;59.928;30.306;2023-08-12T02:15:59;101766.97;;;17.94;100.00
41250;BME280;26984;59.928;30.306;2023-08-12T02:18:27;101770.88;;;17.86;100.00
41250;BME280;26984;59.928;30.306;2023-08-12T02:20:54;101768.84;;;17.82;100.00
41250;BME280;26984;59.928;30.306;2023-08-12T02:23:25;101768.84;;;17.82;100.00
41250;BME280;26984;59.928;30.306;2023-08-12T02:25:52;101771.81;;;17.80;100.00
41250;BME280;26984;59.928;30.306;2023-08-12T02:28:23;101763.28;;;17.77;100.00
41250;BME280;26984;59.928;30.306;2023-08-12T02:30:53;101764.72;;;17.79;100.00
41250;BME280;26984;59.928;30.306;2023-08-12T02:33:20;101767.56;;;17.84;100.00
41250;BME280;26984;59.928;30.306;2023-08-12T02:35:48;101762.94;;;17.85;100.00
41250;BME280;26984;59.928;30.306;2023-08-12T02:38:19;101764.59;;;17.86;100.00
41250;BME280;26984;59.928;30.306;2023-08-12T02:40:47;101764.00;;;17.84;100.00
41250;BME280;26984;59.928;30.306;2023-08-12T02:43:15;101754.75;;;17.85;100.00
41250;BME280;26984;59.928;30.306;2023-08-12T02:45:42;101755.56;;;17.85;100.00
41250;BME280;26984;59.928;30.306;2023-08-12T02:48:11;101761.03;;;17.85;100.00
41250;BME280;26984;59.928;30.306;2023-08-12T02:50:39;101763.28;;;17.88;100.00
41250;BME280;26984;59.928;30.306;2023-08-12T02:53:07;101762.81;;;17.91;100.00
41250;BME280;26984;59.928;30.306;2023-08-12T02:55:35;101760.56;;;18.00;100.00
41250;BME280;26984;59.928;30.306;2023-08-12T02:58:03;101771.31;;;18.07;100.00
41250;BME280;26984;59.928;30.306;2023-08-12T03:00:31;101761.97;;;18.14;100.00
41250;BME280;26984;59.928;30.306;2023-08-12T03:03:00;101758.75;;;18.29;100.00
41250;BME280;26984;59.928;30.306;2023-08-12T03:05:30;101756.59;;;18.31;100.00
41250;BME280;26984;59.928;30.306;2023-08-12T03:07:58;101764.41;;;18.39;100.00
41250;BME280;26984;59.928;30.306;2023-08-12T03:10:27;101762.66;;;18.33;100.00
41250;BME280;26984;59.928;30.306;2023-08-12T03:12:55;101767.41;;;18.26;100.00
41250;BME280;26984;59.928;30.306;2023-08-12T03:15:23;101770.59;;;18.23;100.00
41250;BME280;26984;59.928;30.306;2023-08-12T03:17:51;101761.97;;;18.14;100.00
41250;BME280;26984;59.928;30.306;2023-08-12T03:20:21;101772.53;;;18.11;100.00
41250;BME280;26984;59.928;30.306;2023-08-12T03:22:51;101775.47;;;18.09;100.00
41250;BME280;26984;59.928;30.306;2023-08-12T03:25:18;101778.22;;;18.09;100.00
41250;BME280;26984;59.928;30.306;2023-08-12T03:27:46;101778.09;;;18.16;100.00
41250;BME280;26984;59.928;30.306;2023-08-12T03:30:14;101778.09;;;18.16;100.00
41250;BME280;26984;59.928;30.306;2023-08-12T03:32:44;101774.53;;;18.15;100.00
41250;BME280;26984;59.928;30.306;2023-08-12T03:35:12;101787.09;;;18.16;100.00
41250;BME280;26984;59.928;30.306;2023-08-12T03:37:39;101781.63;;;18.16;100.00
41250;BME280;26984;59.928;30.306;2023-08-12T03:40:09;101779.53;;;18.18;100.00
41250;BME280;26984;59.928;30.306;2023-08-12T03:42:38;101779.03;;;18.22;100.00
41250;BME280;26984;59.928;30.306;2023-08-12T03:45:06;101779.41;;;18.25;100.00
41250;BME280;26984;59.928;30.306;2023-08-12T03:47:37;101787.94;;;18.29;100.00
41250;BME280;26984;59.928;30.306;2023-08-12T03:50:06;101781.97;;;18.32;100.00
41250;BME280;26984;59.928;30.306;2023-08-12T03:52:33;101785.91;;;18.36;100.00
41250;BME280;26984;59.928;30.306;2023-08-12T03:55:01;101792.53;;;18.40;100.00
41250;BME280;26984;59.928;30.306;2023-08-12T03:57:30;101785.75;;;18.42;100.00
41250;BME280;26984;59.928;30.306;2023-08-12T03:59:58;101785.25;;;18.46;100.00
41250;BME280;26984;59.928;30.306;2023-08-12T04:02:25;101779.59;;;18.47;100.00
41250;BME280;26984;59.928;30.306;2023-08-12T04:04:53;101777.41;;;18.49;100.00
41250;BME280;26984;59.928;30.306;2023-08-12T04:07:20;101779.19;;;18.55;100.00
41250;BME280;26984;59.928;30.306;2023-08-12T04:09:48;101778.81;;;18.63;100.00
41250;BME280;26984;59.928;30.306;2023-08-12T04:12:15;101774.16;;;18.64;100.00
41250;BME280;26984;59.928;30.306;2023-08-12T04:14:44;101771.34;;;18.59;100.00
41250;BME280;26984;59.928;30.306;2023-08-12T04:17:12;101774.78;;;18.66;100.00
41250;BME280;26984;59.928;30.306;2023-08-12T04:19:39;101773.47;;;18.57;99.94
41250;BME280;26984;59.928;30.306;2023-08-12T04:22:06;101771.09;;;18.60;100.00
41250;BME280;26984;59.928;30.306;2023-08-12T04:24:34;101777.06;;;18.57;99.85
41250;BME280;26984;59.928;30.306;2023-08-12T04:27:02;101776.00;;;18.58;99.69
41250;BME280;26984;59.928;30.306;2023-08-12T04:29:30;101776.06;;;18.63;99.69
41250;BME280;26984;59.928;30.306;2023-08-12T04:31:59;101771.94;;;18.61;99.22
41250;BME280;26984;59.928;30.306;2023-08-12T04:34:27;101771.56;;;18.69;98.88
41250;BME280;26984;59.928;30.306;2023-08-12T04:36:54;101777.75;;;18.76;98.16
41250;BME280;26984;59.928;30.306;2023-08-12T04:39:22;101770.22;;;18.83;98.04
41250;BME280;26984;59.928;30.306;2023-08-12T04:41:50;101770.16;;;18.95;96.91
41250;BME280;26984;59.928;30.306;2023-08-12T04:44:17;101768.47;;;19.06;96.60
41250;BME280;26984;59.928;30.306;2023-08-12T04:46:45;101762.69;;;19.19;96.04
41250;BME280;26984;59.928;30.306;2023-08-12T04:49:14;101748.78;;;19.21;95.60
41250;BME280;26984;59.928;30.306;2023-08-12T04:51:42;101767.75;;;19.44;95.49
41250;BME280;26984;59.928;30.306;2023-08-12T04:54:10;101757.44;;;19.46;95.12
41250;BME280;26984;59.928;30.306;2023-08-12T04:56:37;101762.47;;;19.54;95.34
41250;BME280;26984;59.928;30.306;2023-08-12T04:59:05;101762.06;;;19.63;95.25
41250;BME280;26984;59.928;30.306;2023-08-12T05:01:34;101758.47;;;19.62;95.17
41250;BME280;26984;59.928;30.306;2023-08-12T05:04:01;101762.53;;;19.59;95.61
41250;BME280;26984;59.928;30.306;2023-08-12T05:06:30;101761.47;;;19.60;95.87
41250;BME280;26984;59.928;30.306;2023-08-12T05:08:58;101765.41;;;19.65;95.96
41250;BME280;26984;59.928;30.306;2023-08-12T05:11:26;101767.03;;;19.66;95.96
41250;BME280;26984;59.928;30.306;2023-08-12T05:13:54;101768.03;;;19.76;95.54
41250;BME280;26984;59.928;30.306;2023-08-12T05:16:21;101765.13;;;19.83;95.18
41250;BME280;26984;59.928;30.306;2023-08-12T05:18:49;101762.22;;;19.90;94.88
41250;BME280;26984;59.928;30.306;2023-08-12T05:21:16;101764.00;;;20.01;94.44
41250;BME280;26984;59.928;30.306;2023-08-12T05:23:46;101756.19;;;20.09;94.19
41250;BME280;26984;59.928;30.306;2023-08-12T05:26:13;101755.84;;;20.23;93.69
41250;BME280;26984;59.928;30.306;2023-08-12T05:28:41;101758.19;;;20.36;92.94
41250;BME280;26984;59.928;30.306;2023-08-12T05:31:08;101759.97;;;20.47;92.74
41250;BME280;26984;59.928;30.306;2023-08-12T05:33:36;101772.53;;;20.65;91.27
41250;BME280;26984;59.928;30.306;2023-08-12T05:36:04;101762.69;;;20.91;89.77
41250;BME280;26984;59.928;30.306;2023-08-12T05:38:31;101751.53;;;20.98;88.33
41250;BME280;26984;59.928;30.306;2023-08-12T05:41:00;101755.41;;;21.02;88.37
41250;BME280;26984;59.928;30.306;2023-08-12T05:43:29;101758.81;;;21.14;87.23
41250;BME280;26984;59.928;30.306;2023-08-12T05:45:57;101757.03;;;21.30;87.23
41250;BME280;26984;59.928;30.306;2023-08-12T05:48:24;101752.56;;;21.51;86.76
41250;BME280;26984;59.928;30.306;2023-08-12T05:50:52;101760.06;;;21.66;86.26
41250;BME280;26984;59.928;30.306;2023-08-12T05:53:19;101754.66;;;21.76;85.80
41250;BME280;26984;59.928;30.306;2023-08-12T05:55:47;101751.41;;;21.84;85.70
41250;BME280;26984;59.928;30.306;2023-08-12T05:58:15;101748.19;;;21.92;85.68
41250;BME280;26984;59.928;30.306;2023-08-12T06:00:43;101746.59;;;22.02;84.37
41250;BME280;26984;59.928;30.306;2023-08-12T06:03:11;101746.34;;;22.03;83.97
41250;BME280;26984;59.928;30.306;2023-08-12T06:05:39;101743.59;;;22.03;83.73
41250;BME280;26984;59.928;30.306;2023-08-12T06:08:07;101744.41;;;22.04;83.01
41250;BME280;26984;59.928;30.306;2023-08-12T06:10:34;101736.94;;;21.94;81.88
41250;BME280;26984;59.928;30.306;2023-08-12T06:13:02;101731.63;;;21.77;82.98
41250;BME280;26984;59.928;30.306;2023-08-12T06:15:31;101741.53;;;21.78;83.39
41250;BME280;26984;59.928;30.306;2023-08-12T06:17:59;101745.69;;;21.86;83.03
41250;BME280;26984;59.928;30.306;2023-08-12T06:20:26;101752.34;;;22.00;82.32
41250;BME280;26984;59.928;30.306;2023-08-12T06:22:54;101757.63;;;22.12;81.65
41250;BME280;26984;59.928;30.306;2023-08-12T06:25:21;101742.63;;;22.25;79.26
41250;BME280;26984;59.928;30.306;2023-08-12T06:27:49;101753.13;;;22.38;78.52
41250;BME280;26984;59.928;30.306;2023-08-12T06:30:16;101747.41;;;22.50;78.53
41250;BME280;26984;59.928;30.306;2023-08-12T06:32:45;101754.28;;;22.57;75.89
41250;BME280;26984;59.928;30.306;2023-08-12T06:35:13;101750.16;;;22.55;75.88
41250;BME280;26984;59.928;30.306;2023-08-12T06:37:40;101750.69;;;22.46;75.68
41250;BME280;26984;59.928;30.306;2023-08-12T06:40:08;101752.63;;;22.51;75.53
41250;BME280;26984;59.928;30.306;2023-08-12T06:42:35;101757.03;;;22.62;75.84
41250;BME280;26984;59.928;30.306;2023-08-12T06:45:03;101760.09;;;22.76;74.42
41250;BME280;26984;59.928;30.306;2023-08-12T06:47:31;101750.78;;;22.87;74.34
41250;BME280;26984;59.928;30.306;2023-08-12T06:50:00;101759.06;;;22.98;73.14
41250;BME280;26984;59.928;30.306;2023-08-12T06:52:28;101761.03;;;23.02;73.57
41250;BME280;26984;59.928;30.306;2023-08-12T06:54:55;101766.81;;;23.16;73.09
41250;BME280;26984;59.928;30.306;2023-08-12T06:57:23;101764.63;;;23.28;72.08
41250;BME280;26984;59.928;30.306;2023-08-12T06:59:50;101758.84;;;23.35;69.29
41250;BME280;26984;59.928;30.306;2023-08-12T07:02:18;101761.88;;;23.43;70.86
41250;BME280;26984;59.928;30.306;2023-08-12T07:04:45;101766.56;;;23.48;69.63
41250;BME280;26984;59.928;30.306;2023-08-12T07:07:14;101764.91;;;23.52;69.05
41250;BME280;26984;59.928;30.306;2023-08-12T07:09:42;101757.19;;;23.54;69.12
41250;BME280;26984;59.928;30.306;2023-08-12T07:12:09;101759.66;;;23.66;68.51
41250;BME280;26984;59.928;30.306;2023-08-12T07:14:36;101766.28;;;23.75;68.16
41250;BME280;26984;59.928;30.306;2023-08-12T07:17:04;101765.16;;;23.86;66.47
41250;BME280;26984;59.928;30.306;2023-08-12T07:19:32;101772.03;;;23.89;67.23
41250;BME280;26984;59.928;30.306;2023-08-12T07:21:59;101764.03;;;23.93;66.39
41250;BME280;26984;59.928;30.306;2023-08-12T07:24:29;101776.41;;;24.00;66.89
41250;BME280;26984;59.928;30.306;2023-08-12T07:26:56;101767.31;;;24.05;66.81
41250;BME280;26984;59.928;30.306;2023-08-12T07:29:24;101767.28;;;24.15;65.34
41250;BME280;26984;59.928;30.306;2023-08-12T07:31:51;101772.25;;;24.08;64.72
41250;BME280;26984;59.928;30.306;2023-08-12T07:34:19;101772.00;;;24.09;65.47
41250;BME280;26984;59.928;30.306;2023-08-12T07:36:46;101778.84;;;24.17;65.17
41250;BME280;26984;59.928;30.306;2023-08-12T07:39:14;101770.03;;;24.20;64.34
41250;BME280;26984;59.928;30.306;2023-08-12T07:41:43;101773.91;;;24.19;64.58
41250;BME280;26984;59.928;30.306;2023-08-12T07:44:10;101772.22;;;24.23;64.91
41250;BME280;26984;59.928;30.306;2023-08-12T07:46:37;101772.47;;;24.32;64.52
41250;BME280;26984;59.928;30.306;2023-08-12T07:49:05;101766.94;;;24.37;64.18
41250;BME280;26984;59.928;30.306;2023-08-12T07:51:32;101769.41;;;24.44;64.27
41250;BME280;26984;59.928;30.306;2023-08-12T07:54:00;101767.75;;;24.43;63.73
41250;BME280;26984;59.928;30.306;2023-08-12T07:56:28;101771.59;;;24.47;64.62
41250;BME280;26984;59.928;30.306;2023-08-12T07:58:57;101766.91;;;24.52;64.12
41250;BME280;26984;59.928;30.306;2023-08-12T08:01:24;101765.47;;;24.60;63.01
41250;BME280;26984;59.928;30.306;2023-08-12T08:03:52;101772.38;;;24.63;62.76
41250;BME280;26984;59.928;30.306;2023-08-12T08:06:20;101769.88;;;24.61;63.29
41250;BME280;26984;59.928;30.306;2023-08-12T08:08:47;101779.50;;;24.64;63.40
41250;BME280;26984;59.928;30.306;2023-08-12T08:11:14;101768.97;;;24.76;62.63
41250;BME280;26984;59.928;30.306;2023-08-12T08:13:42;101771.41;;;24.82;62.39
41250;BME280;26984;59.928;30.306;2023-08-12T08:16:11;101770.88;;;24.80;63.01
41250;BME280;26984;59.928;30.306;2023-08-12T08:18:38;101766.56;;;24.69;62.40
41250;BME280;26984;59.928;30.306;2023-08-12T08:21:06;101775.38;;;24.61;63.32
41250;BME280;26984;59.928;30.306;2023-08-12T08:23:33;101771.84;;;24.50;63.47
41250;BME280;26984;59.928;30.306;2023-08-12T08:26:01;101776.59;;;24.40;64.05
41250;BME280;26984;59.928;30.306;2023-08-12T08:28:28;101786.78;;;24.29;64.34
41250;BME280;26984;59.928;30.306;2023-08-12T08:30:56;101784.59;;;24.26;64.89
41250;BME280;26984;59.928;30.306;2023-08-12T08:33:26;101781.06;;;24.05;66.11
41250;BME280;26984;59.928;30.306;2023-08-12T08:35:53;101779.19;;;23.95;65.99
41250;BME280;26984;59.928;30.306;2023-08-12T08:38:21;101780.03;;;23.80;66.26
41250;BME280;26984;59.928;30.306;2023-08-12T08:40:48;101784.69;;;23.85;66.45
41250;BME280;26984;59.928;30.306;2023-08-12T08:43:17;101779.47;;;23.78;66.61
41250;BME280;26984;59.928;30.306;2023-08-12T08:45:46;101783.34;;;23.77;67.49
41250;BME280;26984;59.928;30.306;2023-08-12T08:48:15;101786.91;;;23.68;66.91
41250;BME280;26984;59.928;30.306;2023-08-12T08:50:44;101784.16;;;23.73;67.08
41250;BME280;26984;59.928;30.306;2023-08-12T08:53:13;101788.03;;;23.77;67.43
41250;BME280;26984;59.928;30.306;2023-08-12T08:55:48;101782.78;;;23.85;66.60
41250;BME280;26984;59.928;30.306;2023-08-12T08:58:16;101775.63;;;23.64;66.66
41250;BME280;26984;59.928;30.306;2023-08-12T09:00:44;101778.63;;;23.37;67.41
41250;BME280;26984;59.928;30.306;2023-08-12T09:03:13;101787.16;;;23.40;68.49
41250;BME280;26984;59.928;30.306;2023-08-12T09:05:41;101790.19;;;23.39;67.70
41250;BME280;26984;59.928;30.306;2023-08-12T09:08:10;101787.16;;;23.35;67.29
41250;BME280;26984;59.928;30.306;2023-08-12T09:10:38;101787.72;;;23.27;66.61
41250;BME280;26984;59.928;30.306;2023-08-12T09:13:07;101793.19;;;23.22;67.51
41250;BME280;26984;59.928;30.306;2023-08-12T09:15:35;101785.53;;;23.34;65.08
41250;BME280;26984;59.928;30.306;2023-08-12T09:18:04;101794.56;;;23.30;63.65
41250;BME280;26984;59.928;30.306;2023-08-12T09:20:32;101788.53;;;23.17;62.55
41250;BME280;26984;59.928;30.306;2023-08-12T09:22:59;101797.06;;;23.21;61.41
41250;BME280;26984;59.928;30.306;2023-08-12T09:25:28;101800.88;;;23.05;60.18
41250;BME280;26984;59.928;30.306;2023-08-12T09:27:58;101795.94;;;23.22;57.64
41250;BME280;26984;59.928;30.306;2023-08-12T09:30:29;101791.81;;;23.14;58.23
41250;BME280;26984;59.928;30.306;2023-08-12T09:32:58;101791.00;;;23.09;60.96
41250;BME280;26984;59.928;30.306;2023-08-12T09:35:37;101795.69;;;23.13;61.83
41250;BME280;26984;59.928;30.306;2023-08-12T09:38:05;101797.06;;;23.31;58.32
41250;BME280;26984;59.928;30.306;2023-08-12T09:40:34;101794.88;;;23.43;58.16
41250;BME280;26984;59.928;30.306;2023-08-12T09:43:01;101784.97;;;23.48;58.27
41250;BME280;26984;59.928;30.306;2023-08-12T09:45:31;101793.75;;;23.55;58.40
41250;BME280;26984;59.928;30.306;2023-08-12T09:47:59;101787.44;;;23.54;59.22
41250;BME280;26984;59.928;30.306;2023-08-12T09:50:27;101790.50;;;23.68;58.02
41250;BME280;26984;59.928;30.306;2023-08-12T09:52:55;101793.25;;;23.73;57.93
41250;BME280;26984;59.928;30.306;2023-08-12T09:55:23;101792.69;;;23.81;58.14
41250;BME280;26984;59.928;30.306;2023-08-12T09:57:51;101799.84;;;23.87;56.53
41250;BME280;26984;59.928;30.306;2023-08-12T10:00:19;101794.06;;;23.74;57.47
41250;BME280;26984;59.928;30.306;2023-08-12T10:02:49;101797.91;;;23.73;57.82
41250;BME280;26984;59.928;30.306;2023-08-12T10:05:19;101785.81;;;23.74;57.54
41250;BME280;26984;59.928;30.306;2023-08-12T10:07:47;101789.91;;;23.76;57.92
41250;BME280;26984;59.928;30.306;2023-08-12T10:10:15;101790.75;;;23.72;57.45
41250;BME280;26984;59.928;30.306;2023-08-12T10:12:42;101788.56;;;23.74;57.71
41250;BME280;26984;59.928;30.306;2023-08-12T10:15:11;101778.66;;;23.78;57.32
41250;BME280;26984;59.928;30.306;2023-08-12T10:17:39;101789.66;;;23.78;56.26
41250;BME280;26984;59.928;30.306;2023-08-12T10:20:12;101780.59;;;23.67;56.85
41250;BME280;26984;59.928;30.306;2023-08-12T10:22:39;101793.50;;;23.66;56.88
41250;BME280;26984;59.928;30.306;2023-08-12T10:25:07;101786.63;;;23.74;56.75
41250;BME280;26984;59.928;30.306;2023-08-12T10:27:35;101785.25;;;23.82;55.49
41250;BME280;26984;59.928;30.306;2023-08-12T10:30:03;101782.81;;;23.70;56.56
41250;BME280;26984;59.928;30.306;2023-08-12T10:32:31;101782.25;;;23.73;55.79
41250;BME280;26984;59.928;30.306;2023-08-12T10:34:59;101775.06;;;23.72;54.71
41250;BME280;26984;59.928;30.306;2023-08-12T10:37:30;101781.13;;;23.59;55.04
41250;BME280;26984;59.928;30.306;2023-08-12T10:39:58;101780.00;;;23.55;55.99
41250;BME280;26984;59.928;30.306;2023-08-12T10:42:41;101775.34;;;23.55;55.95
41250;BME280;26984;59.928;30.306;2023-08-12T10:45:09;101782.50;;;23.56;60.99
41250;BME280;26984;59.928;30.306;2023-08-12T10:47:37;101784.44;;;23.66;64.69
41250;BME280;26984;59.928;30.306;2023-08-12T10:50:05;101790.19;;;23.54;69.16
41250;BME280;26984;59.928;30.306;2023-08-12T10:52:34;101774.78;;;23.43;69.40
41250;BME280;26984;59.928;30.306;2023-08-12T10:55:18;101780.03;;;23.50;69.83
41250;BME280;26984;59.928;30.306;2023-08-12T10:57:46;101781.69;;;23.71;66.99
41250;BME280;26984;59.928;30.306;2023-08-12T11:00:14;101786.38;;;23.81;64.53
41250;BME280;26984;59.928;30.306;2023-08-12T11:02:45;101779.75;;;23.82;62.31
41250;BME280;26984;59.928;30.306;2023-08-12T11:05:13;101778.09;;;23.81;62.33
41250;BME280;26984;59.928;30.306;2023-08-12T11:07:42;101775.88;;;23.83;59.63
41250;BME280;26984;59.928;30.306;2023-08-12T11:10:10;101782.47;;;23.87;60.71
41250;BME280;26984;59.928;30.306;2023-08-12T11:12:39;101780.03;;;23.80;60.85
41250;BME280;26984;59.928;30.306;2023-08-12T11:15:07;101778.66;;;23.73;59.16
41250;BME280;26984;59.928;30.306;2023-08-12T11:17:35;101772.59;;;23.76;62.48
41250;BME280;26984;59.928;30.306;2023-08-12T11:20:04;101776.44;;;23.85;65.02
41250;BME280;26984;59.928;30.306;2023-08-12T11:22:32;101776.47;;;23.70;66.83
41250;BME280;26984;59.928;30.306;2023-08-12T11:25:05;101781.69;;;23.66;67.33
41250;BME280;26984;59.928;30.306;2023-08-12T11:27:42;101780.56;;;23.57;67.37
41250;BME280;26984;59.928;30.306;2023-08-12T11:30:11;101767.66;;;23.73;65.26
41250;BME280;26984;59.928;30.306;2023-08-12T11:32:40;101770.94;;;23.80;72.28
41250;BME280;26984;59.928;30.306;2023-08-12T11:35:12;101773.97;;;23.78;70.63
41250;BME280;26984;59.928;30.306;2023-08-12T11:40:43;101780.81;;;23.65;74.02
41250;BME280;26984;59.928;30.306;2023-08-12T11:43:10;101779.19;;;23.80;74.16
41250;BME280;26984;59.928;30.306;2023-08-12T11:45:41;101779.19;;;23.90;67.42
41250;BME280;26984;59.928;30.306;2023-08-12T11:48:09;101781.66;;;23.97;69.70
41250;BME280;26984;59.928;30.306;2023-08-12T11:50:36;101787.72;;;23.88;71.80
41250;BME280;26984;59.928;30.306;2023-08-12T11:53:04;101778.38;;;23.74;74.01
41250;BME280;26984;59.928;30.306;2023-08-12T11:55:32;101786.63;;;23.64;74.96
41250;BME280;26984;59.928;30.306;2023-08-12T11:58:01;101778.66;;;23.73;75.80
41250;BME280;26984;59.928;30.306;2023-08-12T12:00:28;101780.00;;;23.96;71.67
41250;BME280;26984;59.928;30.306;2023-08-12T12:02:56;101775.06;;;23.93;66.55
41250;BME280;26984;59.928;30.306;2023-08-12T12:05:23;101772.84;;;23.89;70.73
41250;BME280;26984;59.928;30.306;2023-08-12T12:07:53;101776.72;;;23.88;72.43
41250;BME280;26984;59.928;30.306;2023-08-12T12:10:21;101775.56;;;24.10;76.30
41250;BME280;26984;59.928;30.306;2023-08-12T12:12:48;101764.28;;;24.06;75.91
41250;BME280;26984;59.928;30.306;2023-08-12T12:15:21;101762.09;;;24.03;75.90
41250;BME280;26984;59.928;30.306;2023-08-12T12:17:50;101769.50;;;24.13;76.31
41250;BME280;26984;59.928;30.306;2023-08-12T12:20:18;101772.25;;;24.08;77.65
41250;BME280;26984;59.928;30.306;2023-08-12T12:22:46;101773.63;;;24.10;74.56
41250;BME280;26984;59.928;30.306;2023-08-12T12:25:14;101777.50;;;24.09;72.78
41250;BME280;26984;59.928;30.306;2023-08-12T12:27:43;101776.66;;;24.19;69.53
41250;BME280;26984;59.928;30.306;2023-08-12T12:30:12;101771.69;;;24.11;67.98
41250;BME280;26984;59.928;30.306;2023-08-12T12:32:41;101766.72;;;24.18;70.59
41250;BME280;26984;59.928;30.306;2023-08-12T12:35:09;101767.84;;;24.17;70.41
41250;BME280;26984;59.928;30.306;2023-08-12T12:37:36;101766.44;;;24.30;73.01
41250;BME280;26984;59.928;30.306;2023-08-12T12:40:05;101777.69;;;24.33;69.85
41250;BME280;26984;59.928;30.306;2023-08-12T12:42:36;101763.88;;;24.44;68.21
41250;BME280;26984;59.928;30.306;2023-08-12T12:45:04;101755.28;;;24.66;68.44